Startpagina
METAR-TAF:

METAR-TAF

Vliegvelden :

Internationale luchthaven van Bahrein

Bahrein, Bahrein

breedte: 26-16N, lengte: 050-39E, hoogte: 2 m

Actueel weer

Dit bericht is 37 minuten geleden gemaakt, om 12:00 UTC
Wind 7 kt uit het noorden
Temperatuur 28°C
Vochtigheid 66%
Druk 1015 hPa
Zicht 10 km of meer
Weinig wolken op 2500 ft

METAR: OBBI 161200Z 36007KT 9999 FEW025 28/21 Q1015 NOSIG

Tijdstip: 15:37 (12:37 UTC)

Verwachting

Dit bericht is 1 uur en het 37 minuten geleden gemaakt, om 11:00 UTC
Verwachting geldig van 16 om 12 UTC tot 17 om 18 UTC
Wind 12 kt uit het noordnoordwesten
Zicht 10 km of meer
geen wolken onder 1500 m en geen cumulonimbus
Wijzigt naar
van 17 om 04 UTC tot 17 om 06 UTC
Wind 15 kt uit het noordnoordwesten met uitschieters tot 25 kt

TAF: OBBI 161100Z 1612/1718 34012KT CAVOK BECMG 1704/1706 33015G25KT

Waarnemingen en weersverwachtingen van meer dan 4000 vliegvelden (METAR en TAF).

De beschikbare stations zijn de gele en rode punten op de kaart.

Ga met uw muis naar het station om de naam te zien.

Klik dan om waarnemingen en weersverwachtingen te zien.

kaart wijzigen: klik op de groene knoppen met een zwart kruis om in te zoomen, op de groene knop met een streepje om uit te zoomen of op de groene pijlen voor aangrenzende kaarten.


METAR-TAF: